Andersen AFB, Guam
Current Conditions -  °F | °C
As of 12:58 PM on Friday 28 Nov 2014 (Local Time) from PGUA Reporting Station
Overcast Overcast  
Wind Chill: 83°   Ceiling: 3400
Heat Index: 90°   Visibility: 10mi
Dew Point: 74°   Wind: 21mph
Humidity: 74%   Direction: 60°ENE
Pressure: 29.84"   Gusts: 28mph
Location:  13.58°N, 144.92°E
Report Text: PGUA 280258Z AUTO 06018G24KT 10SM SCT020 SCT025 OVC034 28/23 A2984 RMK AO2 PK WND 07026/54 SLP095 T02840234 57019 $
Loading
Personal Weather Stations






























Interactive Weather Map New forecast layout! Learn more

10-Day Weather Forecast

Advertisements
Track Severe Weather on mobile